Time;durP1;ratioP1;P1;durP2;ratioP2;P2;SDS_P1;SDS_P2;PMS_P1;PMS_P2;Temp;Humidity;BMP_temperature;BMP_pressure;BME280_temperature;BME280_humidity;BME280_pressure;Samples;Min_cycle;Max_cycle;Signal;HPM_P1;HPM_P2
2022/11/24 00:02:06;;;;;;;1999.90;999.90;;;11.70;99.90;;;;;;5112992;28;20055;-81
2022/11/24 00:04:31;;;;;;;1999.90;999.90;;;10.60;99.90;;;;;;5113010;28;20035;-82
2022/11/24 00:06:57;;;;;;;1679.60;578.03;;;11.90;99.90;;;;;;5111489;28;20047;-82
2022/11/24 00:09:23;;;;;;;1999.90;999.90;;;11.60;99.90;;;;;;5111534;28;20047;-82
2022/11/24 00:11:48;;;;;;;1999.90;999.90;;;11.60;99.90;;;;;;5094799;28;20039;-82
2022/11/24 00:14:14;;;;;;;1226.13;349.83;;;10.70;99.90;;;;;;5112840;28;20044;-82
2022/11/24 00:16:40;;;;;;;1258.60;350.63;;;11.20;99.90;;;;;;5112437;28;20122;-83
2022/11/24 00:19:08;;;;;;;1725.28;590.55;;;11.10;99.90;;;;;;5112856;28;20048;-81
2022/11/24 00:21:34;;;;;;;1760.47;224.07;;;11.80;99.90;;;;;;5094445;28;20050;-83
2022/11/24 00:24:00;;;;;;;1805.32;230.65;;;10.40;99.90;;;;;;5112852;28;20087;-83
2022/11/24 00:26:28;;;;;;;1999.90;999.90;;;11.00;99.90;;;;;;5094642;28;20079;-83
2022/11/24 00:28:56;;;;;;;1999.90;999.90;;;10.30;99.90;;;;;;5113281;28;20051;-82
2022/11/24 00:31:24;;;;;;;1999.90;999.90;;;11.90;99.90;;;;;;5112436;28;20039;-82
2022/11/24 00:33:52;;;;;;;1999.90;999.90;;;10.60;99.90;;;;;;5112913;28;20043;-82
2022/11/24 00:36:18;;;;;;;;;;;11.30;99.90;;;;;;5094232;28;20126;-82
2022/11/24 00:38:45;;;;;;;1999.90;999.90;;;11.70;99.90;;;;;;5113100;28;19924;-83
2022/11/24 00:41:10;;;;;;;1999.90;999.90;;;11.50;99.90;;;;;;5112776;28;20495;-82
2022/11/24 00:43:36;;;;;;;1353.25;176.43;;;11.70;99.90;;;;;;5112706;28;20044;-82
2022/11/24 00:46:02;;;;;;;844.30;105.97;;;11.00;99.90;;;;;;5112777;28;20075;-83
2022/11/24 00:48:28;;;;;;;1590.18;576.00;;;12.00;99.90;;;;;;5112536;28;20046;-83
2022/11/24 00:50:59;;;;;;;1829.60;215.38;;;10.90;99.90;;;;;;5094575;28;20492;-82
2022/11/24 00:53:26;;;;;;;1882.28;415.58;;;11.00;99.90;;;;;;5112225;28;20043;-82
2022/11/24 00:55:52;;;;;;;1999.90;999.90;;;10.90;99.90;;;;;;5112761;28;20171;-83
2022/11/24 00:58:18;;;;;;;1999.90;999.90;;;11.20;99.90;;;;;;5096731;28;20091;-82
2022/11/24 01:00:43;;;;;;;1757.75;787.67;;;12.40;99.90;;;;;;5119360;28;20162;-82
2022/11/24 01:03:11;;;;;;;1999.90;238.75;;;10.30;99.90;;;;;;5119035;28;20043;-82
2022/11/24 01:05:36;;;;;;;1999.90;255.98;;;13.30;99.90;;;;;;5084180;28;20047;-83
2022/11/24 01:08:02;;;;;;;1999.90;999.90;;;10.50;99.90;;;;;;5119456;28;20060;-83
2022/11/24 01:10:28;;;;;;;1999.90;999.90;;;10.30;99.90;;;;;;5117790;28;20053;-82
2022/11/24 01:12:53;;;;;;;1999.90;999.90;;;11.80;99.90;;;;;;5119708;28;20047;-81
2022/11/24 01:15:19;;;;;;;1842.45;597.53;;;11.30;99.90;;;;;;5083869;28;20047;-82
2022/11/24 01:17:45;;;;;;;1999.90;999.90;;;10.90;99.90;;;;;;5119520;28;20039;-83
2022/11/24 01:20:11;;;;;;;1448.93;165.57;;;10.90;99.90;;;;;;5118438;28;20442;-82
2022/11/24 01:22:37;;;;;;;1999.90;999.90;;;12.20;99.90;;;;;;5101147;28;20097;-83
2022/11/24 01:25:05;;;;;;;1652.47;771.35;;;11.40;99.90;;;;;;5119139;28;20047;-82
2022/11/24 01:27:31;;;;;;;1999.90;999.90;;;10.50;99.90;;;;;;5119097;28;20047;-82
2022/11/24 01:29:56;;;;;;;1341.15;362.85;;;11.00;99.90;;;;;;5119131;28;20092;-82
2022/11/24 01:32:22;;;;;;;1727.20;213.32;;;13.30;99.90;;;;;;5100719;28;20500;-82
2022/11/24 01:34:48;;;;;;;1999.90;999.90;;;10.70;99.90;;;;;;5118401;28;20062;-82
2022/11/24 01:37:14;;;;;;;1245.72;532.65;;;;;;;;;;5117047;28;20103;-82
2022/11/24 01:39:40;;;;;;;1999.90;999.90;;;10.40;99.90;;;;;;5118790;28;20039;-82
2022/11/24 01:42:06;;;;;;;1999.90;999.90;;;10.60;99.90;;;;;;5101222;28;20039;-82
2022/11/24 01:44:32;;;;;;;1999.90;999.90;;;10.60;99.90;;;;;;5118859;28;20036;-82
2022/11/24 01:47:29;;;;;;;1999.90;999.90;;;10.90;99.90;;;;;;5101247;28;20050;-82
2022/11/24 01:49:58;;;;;;;1999.90;999.90;;;10.60;99.90;;;;;;5117840;28;20126;-82
2022/11/24 01:52:27;;;;;;;1950.85;801.92;;;10.80;99.90;;;;;;5100932;28;20047;-82
2022/11/24 01:54:57;;;;;;;1581.43;186.82;;;11.40;99.90;;;;;;5118824;28;20296;-82
2022/11/24 01:57:37;;;;;;;1865.95;791.95;;;12.20;99.90;;;;;;5118659;28;20183;-81
2022/11/24 02:00:07;;;;;;;1999.90;999.90;;;12.20;99.90;;;;;;5101107;28;20062;-82
2022/11/24 02:02:32;;;;;;;1643.35;770.60;;;12.10;99.90;;;;;;5118647;28;20047;-82
2022/11/24 02:05:05;;;;;;;1999.90;999.90;;;11.30;99.90;;;;;;5100555;28;20488;-82
2022/11/24 02:07:32;;;;;;;1999.90;999.90;;;12.10;99.90;;;;;;5100384;28;20446;-81
2022/11/24 02:10:02;;;;;;;1999.90;999.90;;;11.60;99.90;;;;;;5116607;28;20483;-82
2022/11/24 02:12:28;;;;;;;1805.75;790.03;;;11.40;99.90;;;;;;5115930;28;20043;-82
2022/11/24 02:14:55;;;;;;;1972.25;632.72;;;11.90;99.90;;;;;;5097486;28;20050;-82
2022/11/24 02:17:21;;;;;;;1885.25;248.98;;;11.30;99.90;;;;;;5115466;28;20175;-82
2022/11/24 02:19:55;;;;;;;1999.90;999.90;;;12.50;99.90;;;;;;5097040;28;20393;-82
2022/11/24 02:22:28;;;;;;;1999.90;999.90;;;11.70;99.90;;;;;;5116748;28;20048;-81
2022/11/24 02:25:19;;;;;;;1999.90;999.90;;;11.70;99.90;;;;;;5115870;28;20046;-82
2022/11/24 02:27:45;;;;;;;1387.28;210.95;;;11.30;99.90;;;;;;5086824;28;20677;-82
2022/11/24 02:30:10;;;;;;;1377.95;557.47;;;10.90;99.90;;;;;;5115301;28;20043;-82
2022/11/24 02:32:39;;;;;;;1828.00;278.00;;;11.90;99.90;;;;;;5115399;28;20089;-82
2022/11/24 02:35:06;;;;;;;1999.90;999.90;;;11.30;99.90;;;;;;5097158;28;20040;-82
2022/11/24 02:37:32;;;;;;;1999.90;999.90;;;11.70;99.90;;;;;;5115284;28;20100;-82
2022/11/24 02:39:58;;;;;;;1999.90;420.20;;;10.50;99.90;;;;;;5112923;28;20069;-82
2022/11/24 02:42:26;;;;;;;932.47;141.23;;;11.60;99.90;;;;;;5114912;28;20058;-82
2022/11/24 02:44:55;;;;;;;875.45;123.60;;;11.60;99.90;;;;;;5114348;28;20079;-82
2022/11/24 02:47:21;;;;;;;1945.70;259.33;;;11.60;99.90;;;;;;5114546;28;20055;-82
2022/11/24 02:49:47;;;;;;;1999.90;999.90;;;11.20;99.90;;;;;;5093828;28;20043;-82
2022/11/24 02:52:13;;;;;;;1999.90;999.90;;;10.80;99.90;;;;;;5115386;28;20572;-82
2022/11/24 02:54:38;;;;;;;1639.80;419.27;;;11.20;99.90;;;;;;5096403;28;20051;-82
2022/11/24 02:57:04;;;;;;;1388.93;551.90;;;10.70;99.90;;;;;;5114014;28;20497;-82
2022/11/24 02:59:30;;;;;;;1778.57;232.20;;;;;;;;;;5113543;28;20276;-81
2022/11/24 03:01:56;;;;;;;1905.60;621.00;;;11.00;99.90;;;;;;5114730;28;20130;-82
2022/11/24 03:04:22;;;;;;;1596.05;763.80;;;10.40;99.90;;;;;;5096321;28;20322;-82
2022/11/24 03:06:48;;;;;;;1433.60;372.95;;;11.40;99.90;;;;;;5114186;28;20039;-81
2022/11/24 03:09:13;;;;;;;1999.90;999.90;;;10.80;99.90;;;;;;5114425;28;20130;-82
2022/11/24 03:11:39;;;;;;;1999.90;652.03;;;12.30;99.90;;;;;;5114515;28;20039;-82
2022/11/24 03:14:06;;;;;;;1999.90;999.90;;;12.20;99.90;;;;;;5096191;28;20118;-81
2022/11/24 03:16:32;;;;;;;1999.90;999.90;;;11.20;99.90;;;;;;5114844;28;20086;-82
2022/11/24 03:18:58;;;;;;;1999.90;999.90;;;9.40;99.90;;;;;;5114736;28;20093;-83
2022/11/24 03:21:24;;;;;;;1999.90;999.90;;;11.90;99.90;;;;;;5114568;28;20135;-82
2022/11/24 03:23:51;;;;;;;1562.05;219.55;;;11.50;99.90;;;;;;5114199;28;20126;-82
2022/11/24 03:26:18;;;;;;;1591.07;208.77;;;12.40;99.90;;;;;;5114378;28;20104;-82
2022/11/24 03:28:44;;;;;;;1999.90;999.90;;;12.40;99.90;;;;;;5113736;28;20082;-82
2022/11/24 03:31:11;;;;;;;1954.32;813.13;;;10.80;99.90;;;;;;5114314;28;20039;-82
2022/11/24 03:33:36;;;;;;;1999.90;999.90;;;10.90;99.90;;;;;;5113643;28;20075;-82
2022/11/24 03:36:04;;;;;;;1361.65;370.75;;;11.80;99.90;;;;;;5114067;28;20097;-82
2022/11/24 03:38:29;;;;;;;1999.90;999.90;;;12.10;99.90;;;;;;5114728;28;20127;-82
2022/11/24 03:40:55;;;;;;;1546.80;224.98;;;11.40;99.90;;;;;;5114079;28;20318;-82
2022/11/24 03:43:21;;;;;;;1869.82;632.42;;;12.00;99.90;;;;;;5112856;28;20050;-82
2022/11/24 03:45:48;;;;;;;1889.93;274.65;;;11.70;99.90;;;;;;5098682;28;20044;-82
2022/11/24 03:48:15;;;;;;;1999.90;999.90;;;10.80;99.90;;;;;;5119838;28;20048;-82
2022/11/24 03:50:41;;;;;;;1999.90;999.90;;;12.00;99.90;;;;;;5117272;28;20535;-82
2022/11/24 03:53:07;;;;;;;1999.90;999.90;;;12.00;99.90;;;;;;5116340;28;20079;-82
2022/11/24 03:55:33;;;;;;;1999.90;999.90;;;10.50;99.90;;;;;;5114283;28;20039;-82
2022/11/24 03:57:58;;;;;;;1728.05;787.72;;;12.10;99.90;;;;;;5113918;28;20497;-82
2022/11/24 04:00:24;;;;;;;1989.07;307.10;;;12.90;99.90;;;;;;5095480;28;20047;-82
2022/11/24 04:02:50;;;;;;;1999.90;999.90;;;10.60;99.90;;;;;;5112109;28;20046;-82
2022/11/24 04:05:16;;;;;;;1999.90;999.90;;;10.70;99.90;;;;;;5095237;28;20597;-83
2022/11/24 04:07:41;;;;;;;1999.90;999.90;;;11.00;99.90;;;;;;5095013;28;20040;-82
2022/11/24 04:10:07;;;;;;;1999.90;999.90;;;10.80;99.90;;;;;;5113270;28;20043;-82
2022/11/24 04:12:45;;;;;;;1827.18;801.92;;;11.80;99.90;;;;;;5095482;28;20051;-83
2022/11/24 04:15:13;;;;;;;1691.47;262.70;;;10.50;99.90;;;;;;5095242;28;20044;-83
2022/11/24 04:17:38;;;;;;;1838.60;632.42;;;10.90;99.90;;;;;;5113012;28;20079;-83
2022/11/24 04:20:04;;;;;;;1750.18;613.65;;;11.00;99.90;;;;;;5112224;28;20110;-82
2022/11/24 04:22:30;;;;;;;1999.90;999.90;;;10.70;99.90;;;;;;5111853;28;20082;-82
2022/11/24 04:24:56;;;;;;;1799.35;796.35;;;10.40;99.90;;;;;;5094868;28;20083;-82
2022/11/24 04:27:21;;;;;;;1999.90;999.90;;;11.40;99.90;;;;;;5113273;28;20404;-82
2022/11/24 04:29:47;;;;;;;630.67;97.57;;;10.50;99.90;;;;;;5094470;28;20387;-82
2022/11/24 04:32:12;;;;;;;1999.90;999.90;;;13.20;99.90;;;;;;5095116;28;20431;-82
2022/11/24 04:34:38;;;;;;;1858.35;287.10;;;11.70;99.90;;;;;;5112422;28;20415;-82
2022/11/24 04:37:04;;;;;;;1986.97;301.48;;;;;;;;;;5112828;28;20471;-82
2022/11/24 04:39:30;;;;;;;1999.90;349.45;;;10.60;99.90;;;;;;5112813;28;20079;-82
2022/11/24 04:41:55;;;;;;;1999.90;999.90;;;11.70;99.90;;;;;;5113008;28;20082;-82
2022/11/24 04:44:21;;;;;;;1838.05;618.97;;;10.50;99.90;;;;;;5111900;28;20039;-82
2022/11/24 04:46:47;;;;;;;1806.40;258.83;;;;;;;;;;5112301;28;20127;-82
2022/11/24 04:49:13;;;;;;;1999.90;999.90;;;11.10;99.90;;;;;;5112753;28;20206;-82
2022/11/24 04:51:40;;;;;;;1999.90;999.90;;;10.50;99.90;;;;;;5095149;28;20035;-82
2022/11/24 04:54:07;;;;;;;1288.47;355.65;;;11.90;99.90;;;;;;5112671;28;20043;-82
2022/11/24 04:56:33;;;;;;;1999.90;999.90;;;11.30;99.90;;;;;;5112569;28;20052;-82
2022/11/24 04:58:59;;;;;;;1999.90;999.90;;;10.40;99.90;;;;;;5112736;28;20048;-82
2022/11/24 05:01:26;;;;;;;1656.15;585.38;;;11.70;99.90;;;;;;5112496;28;20396;-82
2022/11/24 05:03:55;;;;;;;1999.90;999.90;;;10.70;99.90;;;;;;5112066;28;20411;-83
2022/11/24 05:06:21;;;;;;;1999.90;999.90;;;11.50;99.90;;;;;;5110125;28;20050;-82
2022/11/24 05:08:48;;;;;;;1153.43;333.45;;;10.90;99.90;;;;;;5111205;28;20089;-82
2022/11/24 05:11:15;;;;;;;1259.28;172.75;;;10.20;99.90;;;;;;5077418;28;20058;-82
2022/11/24 05:13:40;;;;;;;1770.90;225.60;;;10.70;99.90;;;;;;5111085;28;20072;-82
2022/11/24 05:16:06;;;;;;;1997.93;619.47;;;12.20;99.90;;;;;;5111702;28;20422;-82
2022/11/24 05:18:32;;;;;;;690.25;101.57;;;11.50;99.90;;;;;;5111738;28;20106;-82
2022/11/24 05:20:58;;;;;;;1867.20;417.67;;;12.30;99.90;;;;;;5112150;28;20047;-81
2022/11/24 05:23:24;;;;;;;1999.90;999.90;;;11.70;99.90;;;;;;5112670;28;20104;-83
2022/11/24 05:25:50;;;;;;;1995.93;432.45;;;11.40;99.90;;;;;;5112324;28;20509;-82
2022/11/24 05:28:15;;;;;;;1559.63;572.47;;;11.20;99.90;;;;;;5112613;28;20484;-82
2022/11/24 05:30:41;;;;;;;1724.15;586.13;;;10.90;99.90;;;;;;5112484;28;20071;-83
2022/11/24 05:33:11;;;;;;;1926.78;616.10;;;11.50;99.90;;;;;;5112086;28;20058;-84
2022/11/24 05:35:36;;;;;;;1714.47;200.80;;;11.30;99.90;;;;;;5110564;28;20132;-83
2022/11/24 05:38:03;;;;;;;1999.90;999.90;;;10.70;99.90;;;;;;5094092;28;20297;-84
2022/11/24 05:40:30;;;;;;;1899.28;794.70;;;10.20;99.90;;;;;;5111946;28;20442;-83
2022/11/24 05:42:56;;;;;;;1893.88;235.75;;;10.20;99.90;;;;;;5111250;28;20050;-84
2022/11/24 05:45:22;;;;;;;1999.90;999.90;;;12.40;99.90;;;;;;5112998;28;20559;-85
2022/11/24 05:47:50;;;;;;;1999.90;999.90;;;11.10;99.90;;;;;;5116315;28;20047;-84
2022/11/24 05:50:17;;;;;;;;;;;12.10;99.90;;;;;;5096799;28;20040;-83
2022/11/24 05:52:43;;;;;;;1999.90;816.55;;;11.60;99.90;;;;;;5116176;28;19930;-84
2022/11/24 05:55:10;;;;;;;1867.35;600.67;;;12.30;99.90;;;;;;5097833;28;20060;-84
2022/11/24 05:57:36;;;;;;;1994.65;431.70;;;10.60;99.90;;;;;;5116202;28;20047;-84
2022/11/24 06:00:04;;;;;;;1566.97;761.20;;;10.90;99.90;;;;;;5115199;28;20080;-81
2022/11/24 06:02:30;;;;;;;1999.90;999.90;;;11.30;99.90;;;;;;5113486;28;20055;-84
2022/11/24 06:04:55;;;;;;;1999.90;646.78;;;11.30;99.90;;;;;;5114636;28;20043;-83
2022/11/24 06:07:21;;;;;;;1999.90;400.67;;;10.80;99.90;;;;;;5112636;28;20047;-83
2022/11/24 06:09:47;;;;;;;1511.28;243.73;;;11.40;99.90;;;;;;5115275;28;20122;-83
2022/11/24 06:12:13;;;;;;;1681.93;607.85;;;13.50;99.90;;;;;;5114420;28;20135;-84
2022/11/24 06:14:39;;;;;;;1890.75;627.95;;;11.00;99.90;;;;;;5114118;28;20036;-83
2022/11/24 06:17:05;;;;;;;1999.90;350.90;;;10.50;99.90;;;;;;5114274;28;20092;-82
2022/11/24 06:19:30;;;;;;;1999.90;672.47;;;10.50;99.90;;;;;;5114405;28;20396;-85
2022/11/24 06:21:56;;;;;;;1999.90;382.15;;;10.50;99.90;;;;;;5114960;28;20043;-84
2022/11/24 06:24:22;;;;;;;1999.90;999.90;;;13.40;99.90;;;;;;5113919;28;20127;-84
2022/11/24 06:26:48;;;;;;;1831.57;271.45;;;12.30;99.90;;;;;;5115075;28;20539;-83
2022/11/24 06:29:13;;;;;;;1999.90;999.90;;;12.00;99.90;;;;;;5114393;28;20052;-83
2022/11/24 06:31:39;;;;;;;1999.90;999.90;;;10.70;99.90;;;;;;5112948;28;20059;-84
2022/11/24 06:34:06;;;;;;;1881.05;802.28;;;13.00;99.90;;;;;;5114116;28;20040;-83
2022/11/24 06:36:32;;;;;;;1999.90;999.90;;;10.70;99.90;;;;;;5096728;28;20164;-82
2022/11/24 06:39:01;;;;;;;1927.90;311.58;;;11.30;99.90;;;;;;5114624;28;20480;-82
2022/11/24 06:41:27;;;;;;;1999.90;335.38;;;11.30;99.90;;;;;;5113906;28;20044;-83
2022/11/24 06:43:53;;;;;;;1999.90;635.33;;;10.30;99.90;;;;;;5114516;28;20499;-82
2022/11/24 06:46:19;;;;;;;1999.90;999.90;;;11.60;99.90;;;;;;5114509;28;20043;-83
2022/11/24 06:48:46;;;;;;;1999.90;999.90;;;11.60;99.90;;;;;;5114482;28;20044;-83
2022/11/24 06:51:11;;;;;;;1999.90;349.63;;;10.40;99.90;;;;;;5096836;28;20071;-83
2022/11/24 06:53:39;;;;;;;1963.97;824.78;;;11.70;99.90;;;;;;5113483;28;20432;-83
2022/11/24 06:56:10;;;;;;;1999.90;999.90;;;11.10;99.90;;;;;;5095471;28;20062;-82
2022/11/24 06:58:42;;;;;;;1913.05;807.28;;;11.60;99.90;;;;;;5113492;28;20085;-84
2022/11/24 07:01:08;;;;;;;1999.90;999.90;;;11.30;99.90;;;;;;5113737;28;20066;-84
2022/11/24 07:03:34;;;;;;;1826.32;602.60;;;11.00;99.90;;;;;;5112887;28;20515;-83
2022/11/24 07:05:59;;;;;;;1999.90;999.90;;;10.60;99.90;;;;;;5079979;28;20493;-83
2022/11/24 07:08:25;;;;;;;1999.90;999.90;;;11.70;99.90;;;;;;5113841;28;20337;-82
2022/11/24 07:10:52;;;;;;;1999.90;999.90;;;11.20;99.90;;;;;;5095833;28;20043;-82
2022/11/24 07:13:19;;;;;;;1999.90;999.90;;;10.40;99.90;;;;;;5113419;28;20056;-83
2022/11/24 07:15:45;;;;;;;1999.90;999.90;;;11.90;99.90;;;;;;5113939;28;20035;-83
2022/11/24 07:18:10;;;;;;;1999.90;999.90;;;11.50;99.90;;;;;;5113150;28;20476;-83
2022/11/24 07:20:36;;;;;;;1999.90;999.90;;;11.60;99.90;;;;;;5114734;28;20057;-84
2022/11/24 07:23:02;;;;;;;1999.90;999.90;;;11.30;99.90;;;;;;5113504;28;20043;-82
2022/11/24 07:25:27;;;;;;;1730.28;432.92;;;10.80;99.90;;;;;;5112768;28;20039;-82
2022/11/24 07:28:00;;;;;;;1950.00;289.55;;;10.70;99.90;;;;;;5096410;28;20567;-82
2022/11/24 07:30:27;;;;;;;1657.65;267.17;;;11.20;99.90;;;;;;5114142;28;20097;-83
2022/11/24 07:32:58;;;;;;;1979.50;647.00;;;10.70;99.90;;;;;;5114516;28;20047;-82
2022/11/24 07:35:24;;;;;;;1999.90;340.13;;;11.10;99.90;;;;;;5113401;28;20043;-80
2022/11/24 07:37:52;;;;;;;1923.15;309.77;;;11.20;99.90;;;;;;5114446;28;20058;-82
2022/11/24 07:40:18;;;;;;;1999.90;858.45;;;11.10;99.90;;;;;;5113965;28;20393;-82
2022/11/24 07:42:44;;;;;;;1131.13;521.13;;;11.10;99.90;;;;;;5114392;28;20043;-83
2022/11/24 07:45:09;;;;;;;1999.90;343.90;;;10.20;99.90;;;;;;5095669;28;20048;-82
2022/11/24 07:47:38;;;;;;;1980.18;497.58;;;11.50;99.90;;;;;;5114344;28;20391;-82
2022/11/24 07:50:06;;;;;;;1999.90;689.40;;;10.40;99.90;;;;;;5095702;28;20055;-83
2022/11/24 07:52:31;;;;;;;1999.90;788.27;;;11.40;99.90;;;;;;5095711;28;20044;-82
2022/11/24 07:54:57;;;;;;;1999.90;999.90;;;10.50;99.90;;;;;;5112398;28;20293;-83
2022/11/24 07:57:23;;;;;;;1999.90;999.90;;;12.50;99.90;;;;;;5113581;28;20048;-82
2022/11/24 07:59:48;;;;;;;1190.57;350.88;;;11.00;99.90;;;;;;5095904;28;20427;-82
2022/11/24 08:02:14;;;;;;;1892.50;625.28;;;10.70;99.90;;;;;;5113671;28;20039;-83
2022/11/24 08:04:40;;;;;;;1937.18;310.42;;;11.20;99.90;;;;;;5113367;28;20557;-82
2022/11/24 08:07:05;;;;;;;1999.90;999.90;;;10.40;99.90;;;;;;5113306;28;20044;-84
2022/11/24 08:09:31;;;;;;;1999.90;999.90;;;;;;;;;;5113231;28;20048;-85
2022/11/24 08:11:57;;;;;;;1999.90;999.90;;;10.50;99.90;;;;;;5113490;28;20540;-83
2022/11/24 08:14:23;;;;;;;1875.85;633.10;;;11.90;99.90;;;;;;5112992;28;20051;-83
2022/11/24 08:16:48;;;;;;;1613.97;762.40;;;11.80;99.90;;;;;;5113717;28;20130;-83
2022/11/24 08:19:14;;;;;;;1855.22;277.30;;;10.90;99.90;;;;;;5113022;28;20185;-83
2022/11/24 08:21:39;;;;;;;1999.90;499.95;;;10.80;99.90;;;;;;5113730;28;20047;-83
2022/11/24 08:24:06;;;;;;;1999.90;999.90;;;12.40;99.90;;;;;;5113328;28;20163;-82
2022/11/24 08:26:31;;;;;;;1999.90;999.90;;;12.30;99.90;;;;;;5094829;28;20047;-83
2022/11/24 08:28:58;;;;;;;1571.30;396.33;;;13.00;99.90;;;;;;5113318;28;20050;-83
2022/11/24 08:31:31;;;;;;;1432.88;559.22;;;12.40;99.90;;;;;;5113213;28;20464;-83
2022/11/24 08:33:57;;;;;;;1495.82;225.65;;;12.40;99.90;;;;;;5113049;28;20136;-84
2022/11/24 08:36:23;;;;;;;1860.32;244.25;;;10.50;99.90;;;;;;5111637;28;20043;-83
2022/11/24 08:38:54;;;;;;;1999.90;999.90;;;12.30;99.90;;;;;;5112118;28;20404;-83
2022/11/24 08:41:20;;;;;;;1441.97;188.18;;;12.40;99.90;;;;;;5113105;28;20395;-83
2022/11/24 08:43:46;;;;;;;1999.90;999.90;;;11.90;99.90;;;;;;5113204;28;20134;-83
2022/11/24 08:46:17;;;;;;;1999.90;999.90;;;13.00;99.90;;;;;;5113080;28;20040;-83
2022/11/24 08:48:47;;;;;;;1999.90;999.90;;;11.20;99.90;;;;;;5094924;28;20143;-83
2022/11/24 08:51:16;;;;;;;1999.90;999.90;;;11.40;99.90;;;;;;5113146;28;20051;-83
2022/11/24 08:53:42;;;;;;;1999.90;999.90;;;12.00;99.90;;;;;;5113085;28;20104;-83
2022/11/24 08:56:09;;;;;;;1999.90;999.90;;;11.90;99.90;;;;;;5112583;28;20047;-83
2022/11/24 08:58:36;;;;;;;1999.90;999.90;;;12.10;99.90;;;;;;5111743;28;20404;-83
2022/11/24 09:01:16;;;;;;;1999.90;999.90;;;11.20;99.90;;;;;;5112977;28;20309;-83
2022/11/24 09:03:43;;;;;;;1999.90;999.90;;;11.50;99.90;;;;;;5112392;28;20495;-83
2022/11/24 09:06:10;;;;;;;1999.90;999.90;;;;;;;;;;5094912;28;20046;-84
2022/11/24 09:08:36;;;;;;;1028.28;148.13;;;12.20;99.90;;;;;;5110843;28;20056;-84
2022/11/24 09:11:10;;;;;;;1999.90;999.90;;;12.70;99.90;;;;;;5113027;28;20048;-84
2022/11/24 09:13:37;;;;;;;1999.90;999.90;;;12.90;99.90;;;;;;5094486;28;20048;-83
2022/11/24 09:16:08;;;;;;;1999.90;999.90;;;12.20;99.90;;;;;;5112641;28;20134;-84
2022/11/24 09:18:34;;;;;;;1999.90;999.90;;;11.50;99.90;;;;;;5111142;28;20445;-83
2022/11/24 09:21:09;;;;;;;714.05;85.82;;;11.90;99.90;;;;;;5117180;28;20122;-83
2022/11/24 09:23:35;;;;;;;1999.90;999.90;;;11.80;99.90;;;;;;5098804;28;20043;-83
2022/11/24 09:26:21;;;;;;;1999.90;999.90;;;13.20;99.90;;;;;;5117048;28;20138;-83
2022/11/24 09:28:47;;;;;;;1999.90;999.90;;;12.70;99.90;;;;;;5116613;28;20056;-83
2022/11/24 09:31:17;;;;;;;1999.90;999.90;;;11.70;99.90;;;;;;5098821;28;20100;-84
2022/11/24 09:33:44;;;;;;;1999.90;999.90;;;12.70;99.90;;;;;;5116099;28;20415;-83
2022/11/24 09:36:09;;;;;;;1999.90;999.90;;;12.60;99.90;;;;;;5098685;28;20087;-84
2022/11/24 09:38:36;;;;;;;1999.90;999.90;;;12.00;99.90;;;;;;5115820;28;20110;-84
2022/11/24 09:41:17;;;;;;;1999.90;999.90;;;12.80;99.90;;;;;;5098937;28;20101;-84
2022/11/24 09:44:11;;;;;;;1999.90;999.90;;;12.40;99.90;;;;;;5116359;28;20043;-83
2022/11/24 09:47:16;;;;;;;805.22;116.07;;;12.20;99.90;;;;;;5115324;28;20047;-84
2022/11/24 09:49:59;;;;;;;1829.60;786.95;;;12.70;99.90;;;;;;5115790;28;20043;-84
2022/11/24 09:52:59;;;;;;;1999.90;999.90;;;12.00;99.90;;;;;;5116290;28;20251;-83
2022/11/24 09:55:31;;;;;;;1999.90;999.90;;;12.40;99.90;;;;;;5116171;28;20032;-83
2022/11/24 09:58:20;;;;;;;1999.90;999.90;;;12.70;99.90;;;;;;5098127;28;20099;-83
2022/11/24 10:00:49;;;;;;;1999.90;999.90;;;12.90;99.90;;;;;;5116107;28;20135;-83
2022/11/24 10:03:35;;;;;;;1999.90;999.90;;;12.80;99.90;;;;;;5115947;28;20089;-83
2022/11/24 10:06:10;;;;;;;1999.90;999.90;;;12.90;99.90;;;;;;5116187;28;20518;-82
2022/11/24 10:09:06;;;;;;;1999.90;999.90;;;12.70;99.90;;;;;;5115460;28;20392;-83
2022/11/24 10:11:57;;;;;;;1999.90;999.90;;;13.00;99.90;;;;;;5098287;28;20054;-83
2022/11/24 10:15:07;;;;;;;1999.90;999.90;;;13.00;99.90;;;;;;5115030;28;20058;-83
2022/11/24 10:17:55;;;;;;;1999.90;999.90;;;13.10;99.90;;;;;;5115993;28;20051;-83
2022/11/24 10:20:30;;;;;;;1999.90;999.90;;;12.90;99.90;;;;;;5097973;28;20148;-84
2022/11/24 10:23:29;;;;;;;1999.90;999.90;;;12.80;99.90;;;;;;5116935;28;20501;-83
2022/11/24 10:25:59;;;;;;;1999.90;999.90;;;12.70;99.90;;;;;;5121063;28;20097;-83
2022/11/24 10:28:34;;;;;;;1999.90;999.90;;;12.20;99.90;;;;;;5098973;28;20362;-83
2022/11/24 10:31:22;;;;;;;1999.90;999.90;;;12.50;99.90;;;;;;5097439;28;20484;-83
2022/11/24 10:33:48;;;;;;;1999.90;999.90;;;12.10;99.90;;;;;;5097356;28;20086;-83
2022/11/24 10:36:30;;;;;;;1999.90;999.90;;;12.40;99.90;;;;;;5097986;28;20048;-83
2022/11/24 10:39:03;;;;;;;1999.90;999.90;;;12.20;99.90;;;;;;5115470;28;20097;-83
2022/11/24 10:41:42;;;;;;;1999.90;999.90;;;11.90;99.90;;;;;;5115620;28;20077;-83
2022/11/24 10:44:12;;;;;;;1999.90;999.90;;;12.00;99.90;;;;;;5097570;28;20090;-84
2022/11/24 10:46:38;;;;;;;1999.90;999.90;;;11.90;99.90;;;;;;5097208;28;20056;-83
2022/11/24 10:49:05;;;;;;;1999.90;999.90;;;12.40;99.90;;;;;;5113936;28;20054;-83
2022/11/24 10:51:54;;;;;;;1462.38;561.58;;;12.20;99.90;;;;;;5097074;28;20097;-83
2022/11/24 10:54:22;;;;;;;1999.90;999.90;;;12.10;99.90;;;;;;5115271;28;20083;-83
2022/11/24 10:56:51;;;;;;;1999.90;999.90;;;12.50;64.70;;;;;;5114925;28;20057;-83
2022/11/24 10:59:24;;;;;;;1170.03;525.75;;;13.30;1.00;;;;;;5097087;28;20058;-83
2022/11/24 11:01:53;;;;;;;1999.90;999.90;;;12.50;99.90;;;;;;5114329;28;20051;-83
2022/11/24 11:04:21;;;;;;;1999.90;999.90;;;12.50;16.40;;;;;;5113235;28;20075;-83
2022/11/24 11:06:46;;;;;;;;;;;12.40;1.00;;;;;;5115201;28;20101;-82
2022/11/24 11:09:21;;;;;;;1999.90;999.90;;;12.50;99.90;;;;;;5113477;28;19923;-83
2022/11/24 11:11:47;;;;;;;1999.90;999.90;;;12.40;68.40;;;;;;5096616;28;20048;-83
2022/11/24 11:14:34;;;;;;;1999.90;999.90;;;12.60;99.90;;;;;;5096749;28;20059;-83
2022/11/24 11:17:00;;;;;;;1999.90;999.90;;;12.40;99.90;;;;;;5096993;28;20048;-84
2022/11/24 11:19:38;;;;;;;1999.90;999.90;;;14.00;1.00;;;;;;5114404;28;20044;-83
2022/11/24 11:22:08;;;;;;;1999.90;999.90;;;12.30;1.00;;;;;;5114289;28;20495;-83
2022/11/24 11:24:35;;;;;;;1999.90;999.90;;;12.50;99.90;;;;;;5113493;28;20047;-83
2022/11/24 11:27:04;;;;;;;1999.90;999.90;;;12.60;90.30;;;;;;5096591;28;20437;-83
2022/11/24 11:29:30;;;;;;;1999.90;999.90;;;12.60;73.80;;;;;;5096269;28;20055;-83
2022/11/24 11:31:57;;;;;;;1999.90;999.90;;;12.60;99.90;;;;;;5096122;28;20126;-83
2022/11/24 11:34:23;;;;;;;1999.90;999.90;;;12.60;68.30;;;;;;5096071;28;20043;-83
2022/11/24 11:36:52;;;;;;;1999.90;999.90;;;12.70;99.90;;;;;;5113602;28;20131;-83
2022/11/24 11:39:23;;;;;;;1999.90;999.90;;;12.70;1.00;;;;;;5113191;28;20059;-84
2022/11/24 11:41:53;;;;;;;1999.90;999.90;;;12.80;1.00;;;;;;5095885;28;20074;-84
2022/11/24 11:44:42;;;;;;;1999.90;999.90;;;12.80;92.10;;;;;;5114229;28;20116;-84
2022/11/24 11:47:20;;;;;;;1999.90;999.90;;;12.90;99.90;;;;;;5114070;28;20043;-84
2022/11/24 11:49:48;;;;;;;1999.90;999.90;;;12.80;99.90;;;;;;5113512;28;20043;-84
2022/11/24 11:52:44;;;;;;;1999.90;999.90;;;12.90;99.90;;;;;;5113799;28;20077;-84
2022/11/24 11:55:36;;;;;;;1999.90;999.90;;;13.00;99.90;;;;;;5112653;28;20134;-83
2022/11/24 11:58:36;;;;;;;1999.90;999.90;;;13.20;83.30;;;;;;5112614;28;20044;-84
2022/11/24 12:01:11;;;;;;;1999.90;999.90;;;13.00;99.90;;;;;;5109962;28;20119;-84
2022/11/24 12:04:18;;;;;;;1999.90;999.90;;;13.00;38.60;;;;;;5112262;28;20138;-84
2022/11/24 12:06:57;;;;;;;1999.90;999.90;;;13.10;1.00;;;;;;5102217;28;20095;-84
2022/11/24 12:09:41;;;;;;;1999.90;999.90;;;13.10;1.00;;;;;;5113729;28;20064;-84
2022/11/24 12:12:39;;;;;;;1999.90;999.90;;;13.00;1.00;;;;;;5113265;28;20054;-84
2022/11/24 12:15:07;;;;;;;1999.90;999.90;;;13.20;1.00;;;;;;5095132;28;20048;-84